Time;durP1;ratioP1;P1;durP2;ratioP2;P2;SDS_P1;SDS_P2;PMS_P1;PMS_P2;Temp;Humidity;BMP_temperature;BMP_pressure;BME280_temperature;BME280_humidity;BME280_pressure;Samples;Min_cycle;Max_cycle;Signal;HPM_P1;HPM_P2
2024/04/10 00:01:52;;;;;;;3.72;1.08;;;14.90;56.20;16.40;101760.00;;;;5386489;26;20245;-78
2024/04/10 00:04:18;;;;;;;2.58;1.00;;;14.80;56.20;16.30;101758.00;;;;5394476;26;20250;-78
2024/04/10 00:06:47;;;;;;;4.10;1.23;;;14.80;56.20;16.30;101764.00;;;;5382901;26;20284;-78
2024/04/10 00:09:13;;;;;;;6.78;1.25;;;14.80;56.20;16.30;101758.00;;;;5384817;26;20242;-78
2024/04/10 00:11:42;;;;;;;5.18;1.20;;;14.80;56.30;16.30;101768.00;;;;5392251;26;20234;-78
2024/04/10 00:14:11;;;;;;;5.15;1.17;;;14.80;56.30;16.30;101778.00;;;;5377534;26;20700;-78
2024/04/10 00:16:40;;;;;;;6.82;1.30;;;14.80;56.40;16.30;101780.00;;;;5394983;26;20246;-77
2024/04/10 00:19:06;;;;;;;7.25;1.15;;;14.80;56.40;16.30;101791.00;;;;5377485;26;20235;-77
2024/04/10 00:21:35;;;;;;;3.35;1.20;;;14.80;56.60;16.20;101790.00;;;;5375868;26;20237;-77
2024/04/10 00:24:01;;;;;;;4.13;1.60;;;14.80;56.60;16.10;101789.00;;;;5377832;26;20277;-78
2024/04/10 00:26:30;;;;;;;4.38;1.50;;;14.70;56.60;16.10;101796.00;;;;5376393;26;20312;-77
2024/04/10 00:28:56;;;;;;;3.53;1.77;;;14.70;56.70;16.00;101801.00;;;;5377445;26;20231;-78
2024/04/10 00:31:28;;;;;;;3.83;1.75;;;14.70;56.90;16.00;101803.00;;;;5377400;26;20231;-78
2024/04/10 00:33:54;;;;;;;5.07;1.35;;;14.60;57.00;16.00;101798.00;;;;5375972;26;20289;-78
2024/04/10 00:36:23;;;;;;;4.07;1.60;;;14.60;57.10;15.90;101819.00;;;;5383992;26;20234;-77
2024/04/10 00:38:49;;;;;;;4.35;1.58;;;14.50;57.20;15.90;101823.00;;;;5383773;26;20234;-78
2024/04/10 00:41:19;;;;;;;4.15;0.95;;;14.50;57.40;15.80;101832.00;;;;5392786;26;20285;-79
2024/04/10 00:43:45;;;;;;;4.97;1.60;;;14.40;57.50;15.80;101840.00;;;;5377413;26;20372;-79
2024/04/10 00:46:18;;;;;;;2.92;1.45;;;14.40;57.80;15.70;101829.00;;;;5376372;26;20687;-79
2024/04/10 00:48:48;;;;;;;5.63;1.65;;;14.40;58.20;15.70;101841.00;;;;5376079;26;20338;-78
2024/04/10 00:51:20;;;;;;;4.63;1.20;;;14.30;58.20;15.60;101836.00;;;;5368223;26;20293;-78
2024/04/10 00:53:47;;;;;;;5.88;1.38;;;14.30;58.30;15.60;101848.00;;;;5373491;26;20327;-78
2024/04/10 00:56:16;;;;;;;3.92;2.08;;;14.20;58.30;15.60;101856.00;;;;5368447;26;20280;-78
2024/04/10 00:58:43;;;;;;;8.10;1.67;;;14.20;58.60;15.60;101849.00;;;;5398601;26;20809;-78
2024/04/10 01:01:13;;;;;;;4.97;1.48;;;14.10;58.70;15.60;101846.00;;;;5377117;26;20732;-78
2024/04/10 01:03:40;;;;;;;2.90;1.52;;;14.10;59.00;15.60;101853.00;;;;5376045;26;20234;-78
2024/04/10 01:06:12;;;;;;;5.97;1.70;;;14.10;59.20;15.60;101864.00;;;;5375263;26;20280;-78
2024/04/10 01:08:39;;;;;;;7.03;1.60;;;14.00;59.40;15.60;101863.00;;;;5377189;26;20242;-78
2024/04/10 01:11:10;;;;;;;3.45;1.48;;;14.00;59.40;15.60;101871.00;;;;5379205;26;20234;-78
2024/04/10 01:13:36;;;;;;;4.78;1.42;;;14.00;59.50;15.60;101879.00;;;;5383591;26;20280;-78
2024/04/10 01:16:06;;;;;;;3.38;1.60;;;14.00;59.60;15.60;101876.00;;;;5386304;26;20290;-78
2024/04/10 01:18:32;;;;;;;5.13;1.40;;;14.00;59.60;15.60;101879.00;;;;5378216;26;20234;-78
2024/04/10 01:21:01;;;;;;;4.10;1.42;;;14.00;59.70;15.60;101884.00;;;;5383498;26;20723;-78
2024/04/10 01:23:31;;;;;;;4.38;1.65;;;14.00;60.50;15.60;101878.00;;;;5384940;26;20243;-78
2024/04/10 01:25:59;;;;;;;7.25;1.55;;;14.00;59.90;15.60;101889.00;;;;5374757;26;20234;-78
2024/04/10 01:28:26;;;;;;;4.50;1.30;;;14.00;59.90;15.60;101893.00;;;;5357747;26;20716;-77
2024/04/10 01:30:54;;;;;;;3.92;1.90;;;14.00;59.80;15.60;101892.00;;;;5384808;26;20342;-77
2024/04/10 01:33:20;;;;;;;5.60;1.92;;;13.90;59.80;15.50;101905.00;;;;5386341;26;20222;-77
2024/04/10 01:35:49;;;;;;;4.53;1.90;;;13.90;59.90;15.50;101904.00;;;;5383332;26;20264;-77
2024/04/10 01:38:15;;;;;;;6.18;1.60;;;13.90;60.00;15.50;101901.00;;;;5375127;26;20319;-77
2024/04/10 01:40:46;;;;;;;4.57;1.92;;;13.90;60.10;15.50;101903.00;;;;5374837;26;20273;-77
2024/04/10 01:43:12;;;;;;;6.90;1.63;;;13.90;60.20;15.50;101914.00;;;;5383953;26;20254;-77
2024/04/10 01:45:41;;;;;;;3.88;1.75;;;13.90;60.30;15.50;101908.00;;;;5375479;26;20343;-78
2024/04/10 01:48:08;;;;;;;4.68;1.88;;;13.80;60.30;15.50;101914.00;;;;5382031;26;20238;-77
2024/04/10 01:50:36;;;;;;;5.38;2.08;;;13.80;60.40;15.50;101908.00;;;;5396989;26;20242;-77
2024/04/10 01:53:03;;;;;;;4.43;1.98;;;13.80;60.50;15.50;101920.00;;;;5399036;26;20694;-78
2024/04/10 01:55:31;;;;;;;7.40;2.10;;;13.80;60.60;15.50;101936.00;;;;5381962;26;20236;-78
2024/04/10 01:58:02;;;;;;;3.70;1.65;;;13.80;60.60;15.50;101928.00;;;;5391648;26;20249;-78
2024/04/10 02:00:30;;;;;;;4.82;1.83;;;13.80;60.80;15.50;101931.00;;;;5382928;26;20844;-77
2024/04/10 02:02:56;;;;;;;2.88;1.58;;;13.80;60.60;15.50;101932.00;;;;5375856;26;20302;-77
2024/04/10 02:05:25;;;;;;;4.88;1.90;;;13.80;60.60;15.50;101939.00;;;;5373892;26;20331;-78
2024/04/10 02:07:51;;;;;;;5.28;1.63;;;13.80;60.70;15.50;101942.00;;;;5385940;26;20282;-78
2024/04/10 02:10:21;;;;;;;5.00;1.80;;;13.80;60.90;15.50;101938.00;;;;5394050;26;20745;-78
2024/04/10 02:12:47;;;;;;;8.10;1.92;;;13.80;60.90;15.50;101938.00;;;;5374284;26;20276;-78
2024/04/10 02:15:18;;;;;;;7.72;2.42;;;13.80;60.90;15.50;101941.00;;;;5394176;26;20234;-78
2024/04/10 02:17:44;;;;;;;3.92;1.65;;;13.80;61.10;15.50;101946.00;;;;5356884;26;20351;-78
2024/04/10 02:20:15;;;;;;;5.97;1.65;;;13.80;61.00;15.50;101949.00;;;;5375311;26;20242;-77
2024/04/10 02:22:42;;;;;;;3.40;1.30;;;13.80;61.00;15.50;101948.00;;;;5374859;26;20284;-77
2024/04/10 02:25:10;;;;;;;5.47;1.83;;;13.80;61.10;15.50;101956.00;;;;5380542;26;20238;-78
2024/04/10 02:27:36;;;;;;;6.28;1.83;;;13.80;61.00;15.50;101964.00;;;;5410422;26;20719;-77
2024/04/10 02:30:06;;;;;;;4.15;1.55;;;13.80;61.00;15.50;101967.00;;;;5377011;26;20320;-77
2024/04/10 02:32:35;;;;;;;3.38;1.30;;;13.80;60.90;15.40;101973.00;;;;5373250;26;20806;-77
2024/04/10 02:35:04;;;;;;;6.10;1.77;;;13.70;60.90;15.40;101974.00;;;;5367168;26;20234;-77
2024/04/10 02:37:30;;;;;;;4.45;1.40;;;13.80;61.00;15.40;101974.00;;;;5375424;26;20282;-77
2024/04/10 02:39:58;;;;;;;6.68;1.73;;;13.70;61.00;15.40;101979.00;;;;5374971;26;20230;-77
2024/04/10 02:42:24;;;;;;;6.47;1.67;;;13.70;61.00;15.40;101987.00;;;;5374011;26;20264;-77
2024/04/10 02:44:53;;;;;;;4.18;2.22;;;13.70;61.00;15.40;101989.00;;;;5377512;26;20230;-77
2024/04/10 02:47:19;;;;;;;4.13;1.35;;;13.70;61.20;15.40;101990.00;;;;5375698;26;20234;-77
2024/04/10 02:49:50;;;;;;;8.52;1.77;;;13.70;61.30;15.40;101997.00;;;;5374319;26;20767;-77
2024/04/10 02:52:16;;;;;;;4.20;1.58;;;13.70;61.30;15.40;101996.00;;;;5376062;26;20333;-77
2024/04/10 02:54:45;;;;;;;6.53;1.65;;;13.70;61.30;15.40;102006.00;;;;5373443;26;20728;-77
2024/04/10 02:57:11;;;;;;;7.43;2.17;;;13.70;61.30;15.50;102011.00;;;;5375774;26;20222;-77
2024/04/10 02:59:39;;;;;;;13.25;2.17;;;13.70;61.40;15.50;102014.00;;;;5374283;26;20238;-77
2024/04/10 03:02:05;;;;;;;7.80;1.83;;;13.70;61.50;15.50;102017.00;;;;5371895;26;20988;-77
2024/04/10 03:04:34;;;;;;;6.00;1.45;;;13.70;61.40;15.50;102027.00;;;;5374025;26;20578;-77
2024/04/10 03:07:03;;;;;;;5.15;1.55;;;13.70;61.40;15.40;102029.00;;;;5373663;26;20707;-77
2024/04/10 03:09:31;;;;;;;9.82;1.90;;;13.70;61.50;15.40;102037.00;;;;5374057;26;20234;-77
2024/04/10 03:11:58;;;;;;;3.28;1.60;;;13.70;61.40;15.40;102045.00;;;;5374089;26;20286;-77
2024/04/10 03:14:26;;;;;;;6.50;1.63;;;13.70;61.30;15.40;102048.00;;;;5380007;26;20233;-77
2024/04/10 03:16:52;;;;;;;6.18;1.80;;;13.70;61.20;15.40;102051.00;;;;5410247;26;20210;-77
2024/04/10 03:19:21;;;;;;;6.72;1.88;;;13.70;61.10;15.30;102060.00;;;;5381902;26;21079;-77
2024/04/10 03:21:47;;;;;;;8.63;2.25;;;13.70;61.00;15.30;102063.00;;;;5374336;26;20344;-77
2024/04/10 03:24:18;;;;;;;3.95;1.30;;;13.70;60.90;15.30;102070.00;;;;5373982;26;20732;-77
2024/04/10 03:26:44;;;;;;;4.20;1.67;;;13.70;61.00;15.30;102071.00;;;;5375165;26;20364;-78
2024/04/10 03:29:13;;;;;;;6.88;1.55;;;13.70;60.80;15.30;102071.00;;;;5377254;26;20245;-78
2024/04/10 03:31:39;;;;;;;6.75;1.50;;;13.70;60.80;15.30;102076.00;;;;5381622;26;20983;-78
2024/04/10 03:34:08;;;;;;;3.45;1.38;;;13.70;60.80;15.30;102074.00;;;;5377191;26;20336;-77
2024/04/10 03:36:37;;;;;;;5.50;1.55;;;13.70;60.90;15.30;102076.00;;;;5377380;26;20227;-78
2024/04/10 03:39:03;;;;;;;5.47;1.50;;;13.70;61.10;15.30;102084.00;;;;5391167;26;20233;-78
2024/04/10 03:41:35;;;;;;;10.63;1.77;;;13.60;61.10;15.30;102089.00;;;;5384230;26;20648;-78
2024/04/10 03:44:05;;;;;;;4.68;1.45;;;13.70;61.10;15.30;102095.00;;;;5375612;26;20861;-78
2024/04/10 03:46:34;;;;;;;6.18;1.45;;;13.70;61.00;15.30;102105.00;;;;5380989;26;20763;-78
2024/04/10 03:49:03;;;;;;;4.70;1.27;;;13.60;61.00;15.30;102104.00;;;;5378049;26;20273;-78
2024/04/10 03:51:31;;;;;;;2.47;1.10;;;13.60;61.00;15.30;102106.00;;;;5375683;26;20339;-78
2024/04/10 03:53:57;;;;;;;5.13;1.40;;;13.60;61.00;15.20;102111.00;;;;5378036;26;20235;-78
2024/04/10 03:56:26;;;;;;;4.85;1.73;;;13.60;61.10;15.20;102120.00;;;;5371117;26;20343;-77
2024/04/10 03:58:57;;;;;;;6.90;1.58;;;13.60;61.10;15.20;102118.00;;;;5395204;26;20241;-78
2024/04/10 04:01:23;;;;;;;6.03;1.45;;;13.60;61.10;15.20;102127.00;;;;5406274;26;20302;-78
2024/04/10 04:03:51;;;;;;;6.18;1.67;;;13.60;61.20;15.30;102129.00;;;;5381634;26;20688;-78
2024/04/10 04:06:17;;;;;;;5.38;1.58;;;13.60;61.20;15.30;102135.00;;;;5397008;26;20310;-77
2024/04/10 04:08:46;;;;;;;6.07;1.55;;;13.60;61.30;15.30;102134.00;;;;5398281;26;20230;-78
2024/04/10 04:11:14;;;;;;;4.32;1.30;;;13.60;61.20;15.20;102139.00;;;;5378659;26;20740;-78
2024/04/10 04:13:43;;;;;;;4.80;1.55;;;13.50;61.20;15.20;102138.00;;;;5378276;26;20336;-78
2024/04/10 04:16:11;;;;;;;5.32;1.63;;;13.50;61.20;15.20;102141.00;;;;5390307;26;20345;-78
2024/04/10 04:18:40;;;;;;;7.03;1.40;;;13.50;61.30;15.20;102145.00;;;;5380374;26;20281;-77
2024/04/10 04:21:06;;;;;;;3.78;1.65;;;13.50;61.30;15.20;102153.00;;;;5379031;26;20651;-77
2024/04/10 04:23:36;;;;;;;6.55;1.73;;;13.50;61.30;15.20;102154.00;;;;5382514;26;20230;-77
2024/04/10 04:26:02;;;;;;;6.18;1.75;;;13.50;61.40;15.20;102167.00;;;;5374888;26;20296;-78
2024/04/10 04:28:31;;;;;;;6.57;2.10;;;13.50;61.40;15.20;102168.00;;;;5375107;26;20817;-77
2024/04/10 04:30:57;;;;;;;5.40;1.50;;;13.50;61.40;15.30;102182.00;;;;5376591;26;20242;-77
2024/04/10 04:33:28;;;;;;;5.32;1.35;;;13.50;61.40;15.20;102172.00;;;;5392010;26;20346;-78
2024/04/10 04:35:54;;;;;;;5.38;1.38;;;13.50;61.50;15.20;102185.00;;;;5383234;26;20813;-77
2024/04/10 04:38:23;;;;;;;5.05;1.52;;;13.50;61.40;15.20;102187.00;;;;5389541;26;20242;-78
2024/04/10 04:40:50;;;;;;;5.70;1.60;;;13.50;61.40;15.20;102188.00;;;;5387216;26;20355;-78
2024/04/10 04:43:19;;;;;;;5.80;1.40;;;13.50;61.60;15.20;102194.00;;;;5399099;26;20272;-77
2024/04/10 04:45:45;;;;;;;8.23;1.63;;;13.50;61.50;15.20;102195.00;;;;5399620;26;20233;-77
2024/04/10 04:48:14;;;;;;;4.80;1.38;;;13.50;61.50;15.20;102200.00;;;;5396412;26;20339;-77
2024/04/10 04:50:43;;;;;;;5.72;1.27;;;13.50;61.60;15.20;102207.00;;;;5378519;26;20844;-78
2024/04/10 04:53:12;;;;;;;5.97;1.83;;;13.50;61.60;15.20;102213.00;;;;5381933;26;20267;-77
2024/04/10 04:55:40;;;;;;;5.10;1.48;;;13.50;61.60;15.20;102212.00;;;;5381954;26;20748;-77
2024/04/10 04:58:09;;;;;;;9.27;1.70;;;13.50;61.50;15.20;102213.00;;;;5391270;26;20304;-77
2024/04/10 05:00:35;;;;;;;4.85;1.33;;;13.50;61.40;15.20;102216.00;;;;5386502;26;20235;-77
2024/04/10 05:03:04;;;;;;;6.90;1.13;;;13.50;61.40;15.20;102221.00;;;;5381763;26;20234;-77
2024/04/10 05:05:33;;;;;;;6.80;1.60;;;13.50;61.50;15.20;102233.00;;;;5409700;26;20617;-77
2024/04/10 05:08:05;;;;;;;7.53;1.33;;;13.50;61.40;15.20;102231.00;;;;5413194;26;20264;-77
2024/04/10 05:10:34;;;;;;;5.25;1.45;;;13.50;61.40;15.20;102243.00;;;;5372294;26;20338;-77
2024/04/10 05:13:03;;;;;;;6.47;1.63;;;13.50;61.40;15.20;102249.00;;;;5377044;26;20230;-77
2024/04/10 05:15:29;;;;;;;6.32;1.55;;;13.50;61.50;15.20;102249.00;;;;5374048;26;20820;-77
2024/04/10 05:17:57;;;;;;;6.72;1.60;;;13.50;61.50;15.20;102259.00;;;;5374421;26;20277;-77
2024/04/10 05:20:23;;;;;;;4.22;1.60;;;13.50;61.50;15.30;102266.00;;;;5375063;26;20350;-77
2024/04/10 05:22:52;;;;;;;5.55;2.20;;;13.50;61.50;15.30;102263.00;;;;5375913;26;20748;-77
2024/04/10 05:25:21;;;;;;;7.72;2.03;;;13.50;61.50;15.20;102270.00;;;;5376569;26;20281;-77
2024/04/10 05:27:50;;;;;;;6.63;1.48;;;13.50;61.60;15.30;102280.00;;;;5373121;26;20727;-77
2024/04/10 05:30:16;;;;;;;7.78;1.33;;;13.50;61.50;15.30;102288.00;;;;5380327;26;20233;-77
2024/04/10 05:32:45;;;;;;;6.32;1.85;;;13.50;61.50;15.30;102288.00;;;;5385398;26;20323;-76
2024/04/10 05:35:12;;;;;;;5.03;1.38;;;13.50;61.50;15.30;102282.00;;;;5377905;26;20231;-77
2024/04/10 05:37:42;;;;;;;4.00;1.50;;;13.60;61.70;15.30;102290.00;;;;5377133;26;20234;-77
2024/04/10 05:40:13;;;;;;;3.63;1.20;;;13.60;61.70;15.30;102283.00;;;;5377497;26;20234;-78
2024/04/10 05:42:46;;;;;;;7.10;1.05;;;13.60;61.70;15.30;102300.00;;;;5374428;26;20230;-78
2024/04/10 05:45:13;;;;;;;7.28;1.75;;;13.60;61.70;15.40;102300.00;;;;5375679;26;20854;-78
2024/04/10 05:47:44;;;;;;;5.47;1.42;;;13.60;61.70;15.40;102309.00;;;;5375858;26;20308;-77
2024/04/10 05:50:11;;;;;;;5.38;1.48;;;13.60;61.50;15.40;102313.00;;;;5389982;26;20346;-79
2024/04/10 05:52:44;;;;;;;7.50;1.80;;;13.60;62.20;15.40;102324.00;;;;5401223;26;20338;-79
2024/04/10 05:55:11;;;;;;;6.03;1.60;;;13.60;61.60;15.40;102332.00;;;;5400613;26;20360;-78
2024/04/10 05:57:39;;;;;;;4.28;1.52;;;13.70;61.60;15.50;102330.00;;;;5375505;26;20234;-78
2024/04/10 06:00:10;;;;;;;4.97;1.33;;;13.70;61.70;15.40;102337.00;;;;5385620;26;20233;-77
2024/04/10 06:02:39;;;;;;;5.43;1.25;;;13.70;61.70;15.50;102339.00;;;;5387948;26;20335;-77
2024/04/10 06:05:06;;;;;;;3.50;1.05;;;13.70;61.50;15.50;102342.00;;;;5384999;26;20747;-77
2024/04/10 06:07:37;;;;;;;6.30;1.45;;;13.80;61.40;15.50;102357.00;;;;5376977;26;20277;-76
2024/04/10 06:10:05;;;;;;;3.88;1.60;;;13.80;62.20;15.50;102363.00;;;;5372198;26;20372;-77
2024/04/10 06:12:33;;;;;;;3.78;1.42;;;13.80;61.40;15.60;102381.00;;;;5375969;26;20238;-77
2024/04/10 06:15:00;;;;;;;3.30;1.20;;;13.80;61.50;15.60;102377.00;;;;5381790;26;20232;-77
2024/04/10 06:17:31;;;;;;;8.38;1.50;;;13.80;61.50;15.60;102374.00;;;;5379431;26;20237;-77
2024/04/10 06:19:58;;;;;;;4.57;1.65;;;13.90;61.40;15.60;102381.00;;;;5388511;26;20287;-77
2024/04/10 06:22:27;;;;;;;5.82;1.60;;;13.90;61.30;15.60;102377.00;;;;5388734;26;20298;-77
2024/04/10 06:24:55;;;;;;;7.75;1.65;;;13.90;61.20;15.60;102373.00;;;;5378153;26;20316;-77
2024/04/10 06:27:21;;;;;;;5.15;1.73;;;13.90;61.10;15.60;102386.00;;;;5379952;26;20299;-79
2024/04/10 06:29:50;;;;;;;7.90;1.88;;;13.90;61.00;15.60;102391.00;;;;5385094;26;20269;-78
2024/04/10 06:32:16;;;;;;;8.48;1.90;;;13.90;61.00;15.60;102399.00;;;;5390019;26;20669;-78
2024/04/10 06:34:47;;;;;;;4.35;1.38;;;13.90;60.80;15.60;102396.00;;;;5347338;26;20712;-78
2024/04/10 06:37:15;;;;;;;4.00;1.25;;;13.90;60.80;15.60;102402.00;;;;5374190;26;20327;-78
2024/04/10 06:39:45;;;;;;;4.25;1.63;;;13.90;60.80;15.60;102400.00;;;;5380085;26;20238;-78
2024/04/10 06:42:11;;;;;;;3.25;1.10;;;13.90;60.70;15.60;102403.00;;;;5375306;26;20739;-78
2024/04/10 06:44:40;;;;;;;4.82;1.30;;;13.90;60.80;15.60;102415.00;;;;5366327;26;20264;-78
2024/04/10 06:47:06;;;;;;;6.85;1.83;;;13.90;60.90;15.60;102418.00;;;;5360198;26;20226;-78
2024/04/10 06:49:35;;;;;;;5.55;1.42;;;13.90;61.00;15.60;102425.00;;;;5375210;26;20305;-78
2024/04/10 06:52:04;;;;;;;6.10;1.30;;;13.90;61.00;15.60;102428.00;;;;5373924;26;20364;-78
2024/04/10 06:54:33;;;;;;;10.00;1.65;;;13.90;61.00;15.70;102441.00;;;;5372558;26;20313;-78
2024/04/10 06:57:01;;;;;;;5.40;2.00;;;14.00;61.00;15.70;102433.00;;;;5405035;26;20239;-78
2024/04/10 06:59:30;;;;;;;4.72;1.50;;;14.00;61.10;15.80;102431.00;;;;5392575;26;20241;-78
2024/04/10 07:01:56;;;;;;;7.63;1.65;;;14.00;61.10;15.80;102428.00;;;;5377094;26;20372;-78
2024/04/10 07:04:25;;;;;;;7.03;1.58;;;14.10;60.80;15.90;102423.00;;;;5376317;26;20234;-78
2024/04/10 07:06:51;;;;;;;5.07;1.25;;;14.10;60.90;15.90;102435.00;;;;5374403;26;21153;-78
2024/04/10 07:09:23;;;;;;;8.05;1.77;;;14.20;61.00;16.00;102441.00;;;;5377629;26;20282;-78
2024/04/10 07:11:50;;;;;;;10.60;1.98;;;14.20;60.80;16.00;102438.00;;;;5377224;26;21149;-78
2024/04/10 07:14:18;;;;;;;7.72;1.75;;;14.30;60.60;16.00;102433.00;;;;5378229;26;20327;-78
2024/04/10 07:16:44;;;;;;;4.43;1.55;;;14.30;60.50;16.00;102446.00;;;;5377283;26;20230;-78
2024/04/10 07:19:13;;;;;;;3.55;1.17;;;14.40;60.30;16.10;102443.00;;;;5377638;26;20226;-79
2024/04/10 07:21:41;;;;;;;3.60;1.30;;;14.40;60.20;16.10;102448.00;;;;5377316;26;20557;-76
2024/04/10 07:24:10;;;;;;;6.65;1.40;;;14.40;60.20;16.20;102462.00;;;;5377706;26;20252;-79
2024/04/10 07:26:38;;;;;;;4.15;1.05;;;14.50;60.30;16.20;102460.00;;;;5377872;26;20242;-76
2024/04/10 07:29:07;;;;;;;3.70;1.38;;;14.60;60.00;16.20;102464.00;;;;5379355;26;20246;-77
2024/04/10 07:31:33;;;;;;;4.60;1.42;;;14.60;59.80;16.30;102473.00;;;;5390464;26;20234;-76
2024/04/10 07:34:03;;;;;;;4.93;1.38;;;14.70;59.80;16.20;102473.00;;;;5377450;26;20235;-76
2024/04/10 07:36:31;;;;;;;4.15;1.35;;;14.70;59.60;16.20;102482.00;;;;5376926;26;20307;-76
2024/04/10 07:39:00;;;;;;;6.47;2.22;;;14.70;59.40;16.20;102492.00;;;;5377868;26;20245;-77
2024/04/10 07:41:26;;;;;;;7.50;1.98;;;14.80;59.30;16.30;102493.00;;;;5377689;26;20831;-76
2024/04/10 07:43:58;;;;;;;7.78;1.67;;;14.80;59.30;16.40;102481.00;;;;5377871;26;20230;-76
2024/04/10 07:46:25;;;;;;;3.53;1.00;;;14.80;59.30;16.50;102485.00;;;;5381458;26;20271;-77
2024/04/10 07:48:57;;;;;;;5.03;1.10;;;14.80;60.00;16.50;102489.00;;;;5376955;26;20276;-76
2024/04/10 07:51:27;;;;;;;6.47;1.17;;;14.90;59.50;16.60;102492.00;;;;5378350;26;20273;-76
2024/04/10 07:53:55;;;;;;;3.25;1.08;;;14.90;59.10;16.60;102493.00;;;;5377441;26;20230;-76
2024/04/10 07:56:22;;;;;;;5.57;1.30;;;15.00;59.00;16.60;102504.00;;;;5377200;26;20327;-76
2024/04/10 07:58:51;;;;;;;3.90;1.20;;;15.00;59.20;16.70;102507.00;;;;5376150;26;20242;-77
2024/04/10 08:01:19;;;;;;;5.85;1.70;;;15.10;58.60;16.70;102506.00;;;;5376552;26;20234;-76
2024/04/10 08:03:48;;;;;;;5.72;1.48;;;15.10;58.60;16.80;102502.00;;;;5389521;26;20229;-77
2024/04/10 08:06:14;;;;;;;2.92;1.38;;;15.10;58.60;16.90;102503.00;;;;5377413;26;20560;-77
2024/04/10 08:08:43;;;;;;;4.03;1.00;;;15.20;58.80;17.00;102520.00;;;;5410603;26;20307;-76
2024/04/10 08:11:13;;;;;;;5.32;1.40;;;15.30;58.80;17.00;102518.00;;;;5402862;26;20309;-77
2024/04/10 08:13:42;;;;;;;5.35;0.90;;;15.30;58.70;17.10;102512.00;;;;5380240;26;21253;-77
2024/04/10 08:16:11;;;;;;;4.57;1.63;;;15.40;58.70;17.20;102516.00;;;;5383882;26;20234;-76
2024/04/10 08:18:45;;;;;;;6.28;1.15;;;15.50;58.80;17.30;102518.00;;;;5389692;26;20723;-77
2024/04/10 08:21:13;;;;;;;6.40;0.95;;;15.60;58.50;17.50;102516.00;;;;5383708;26;20236;-77
2024/04/10 08:23:43;;;;;;;4.65;1.13;;;15.70;58.40;17.60;102522.00;;;;5412993;26;20221;-78
2024/04/10 08:26:12;;;;;;;3.20;1.15;;;15.80;58.40;17.70;102528.00;;;;5381971;26;20360;-77
2024/04/10 08:28:45;;;;;;;4.05;1.30;;;15.90;58.90;17.80;102538.00;;;;5376686;26;20238;-76
2024/04/10 08:31:13;;;;;;;5.47;1.23;;;16.00;58.30;17.90;102542.00;;;;5377416;26;20234;-77
2024/04/10 08:33:44;;;;;;;6.82;1.85;;;16.10;58.10;17.90;102552.00;;;;5375861;26;20234;-77
2024/04/10 08:36:12;;;;;;;5.68;1.00;;;16.20;57.90;18.00;102559.00;;;;5376248;26;20234;-77
2024/04/10 08:38:41;;;;;;;6.18;1.40;;;16.30;57.70;18.00;102555.00;;;;5402247;26;20275;-78
2024/04/10 08:41:13;;;;;;;5.00;1.20;;;16.30;57.20;18.00;102561.00;;;;5379503;26;20226;-78
2024/04/10 08:43:45;;;;;;;2.97;0.90;;;16.40;57.00;18.10;102560.00;;;;5375502;26;20230;-78
2024/04/10 08:46:13;;;;;;;2.35;0.75;;;16.40;56.90;18.10;102567.00;;;;5376175;26;20234;-78
2024/04/10 08:48:46;;;;;;;4.72;0.98;;;16.50;56.80;18.10;102566.00;;;;5377149;26;20268;-78
2024/04/10 08:51:14;;;;;;;3.67;1.10;;;16.50;56.60;18.20;102571.00;;;;5382149;26;20335;-78
2024/04/10 08:53:45;;;;;;;7.03;1.05;;;16.60;56.30;18.20;102562.00;;;;5375790;26;20720;-79
2024/04/10 08:56:13;;;;;;;12.00;1.52;;;16.60;56.40;18.20;102574.00;;;;5377917;26;20234;-78
2024/04/10 08:58:43;;;;;;;4.75;0.90;;;16.70;56.20;18.20;102582.00;;;;5376736;26;20264;-78
2024/04/10 09:01:09;;;;;;;4.30;1.33;;;16.70;55.70;18.20;102578.00;;;;5376292;26;20235;-79
2024/04/10 09:03:39;;;;;;;5.57;1.27;;;16.70;55.70;18.10;102579.00;;;;5376426;26;20281;-79
2024/04/10 09:06:08;;;;;;;3.22;1.42;;;16.70;55.20;18.10;102581.00;;;;5376264;26;20253;-80
2024/04/10 09:08:39;;;;;;;5.18;1.50;;;16.70;55.30;18.20;102586.00;;;;5341710;26;20611;-79
2024/04/10 09:11:05;;;;;;;5.03;1.40;;;16.70;55.50;18.30;102595.00;;;;5372489;26;20238;-79
2024/04/10 09:13:34;;;;;;;3.28;1.17;;;16.70;55.60;18.30;102600.00;;;;5412226;26;20237;-79
2024/04/10 09:16:00;;;;;;;4.10;1.52;;;16.70;55.60;18.30;102593.00;;;;5382425;26;20242;-79
2024/04/10 09:18:29;;;;;;;2.55;0.98;;;16.70;55.20;18.40;102603.00;;;;5375806;26;20234;-78
2024/04/10 09:21:10;;;;;;;5.43;1.40;;;16.80;55.20;18.30;102607.00;;;;5375468;26;20350;-79
2024/04/10 09:23:39;;;;;;;7.75;1.67;;;16.80;54.50;18.40;102617.00;;;;5374957;26;20712;-79
2024/04/10 09:26:06;;;;;;;4.75;1.60;;;16.80;54.60;18.40;102609.00;;;;5376485;26;20242;-78
2024/04/10 09:28:35;;;;;;;4.93;1.30;;;16.90;53.70;18.40;102613.00;;;;5377960;26;20490;-79
2024/04/10 09:31:02;;;;;;;3.70;1.17;;;16.90;54.20;18.40;102619.00;;;;5372724;26;20235;-79
2024/04/10 09:33:35;;;;;;;5.28;1.35;;;16.90;54.30;18.40;102609.00;;;;5373565;26;20341;-79
2024/04/10 09:36:05;;;;;;;2.50;0.95;;;16.90;54.20;18.50;102601.00;;;;5373686;26;20234;-79
2024/04/10 09:38:39;;;;;;;5.55;1.13;;;17.00;54.40;18.50;102606.00;;;;5373535;26;20276;-78
2024/04/10 09:41:11;;;;;;;1.90;0.98;;;17.00;54.30;18.60;102601.00;;;;5372521;26;20263;-79
2024/04/10 09:43:45;;;;;;;4.65;1.38;;;17.00;54.00;18.60;102606.00;;;;5373034;26;20226;-78
2024/04/10 09:46:12;;;;;;;4.43;1.13;;;17.10;53.70;18.60;102612.00;;;;5391930;26;20656;-79
2024/04/10 09:48:43;;;;;;;2.55;1.00;;;17.20;53.80;18.70;102607.00;;;;5402263;26;20371;-79
2024/04/10 09:51:21;;;;;;;4.95;1.27;;;17.20;53.60;18.70;102615.00;;;;5373550;26;20234;-79
2024/04/10 09:53:53;;;;;;;4.97;1.50;;;17.20;53.80;18.80;102620.00;;;;5370907;26;20744;-78
2024/04/10 09:56:20;;;;;;;2.58;1.10;;;17.20;53.30;18.70;102615.00;;;;5374542;26;20242;-79
2024/04/10 09:58:50;;;;;;;3.53;0.75;;;17.30;52.90;18.70;102614.00;;;;5376621;26;20230;-79
2024/04/10 10:01:23;;;;;;;3.63;1.15;;;17.30;53.00;18.70;102618.00;;;;5376328;26;20277;-79
2024/04/10 10:03:58;;;;;;;4.25;0.80;;;17.40;52.70;18.80;102627.00;;;;5377669;26;20672;-78
2024/04/10 10:06:28;;;;;;;2.40;0.80;;;17.40;52.60;18.80;102628.00;;;;5375141;26;20830;-78
2024/04/10 10:09:00;;;;;;;3.15;0.73;;;17.40;52.60;18.80;102632.00;;;;5381125;26;20616;-79
2024/04/10 10:11:27;;;;;;;2.72;0.73;;;17.50;52.60;18.90;102630.00;;;;5369285;26;20246;-78
2024/04/10 10:14:00;;;;;;;2.50;1.00;;;17.50;52.80;18.90;102633.00;;;;5373303;26;20594;-79
2024/04/10 10:16:27;;;;;;;8.73;1.20;;;17.60;52.90;19.00;102641.00;;;;5373851;26;20238;-79
2024/04/10 10:18:59;;;;;;;4.43;0.90;;;17.60;52.60;19.10;102634.00;;;;5372417;26;20293;-79
2024/04/10 10:21:27;;;;;;;2.13;1.00;;;17.60;52.50;19.10;102644.00;;;;5379411;26;20226;-79
2024/04/10 10:24:04;;;;;;;2.50;0.55;;;17.70;52.50;19.10;102645.00;;;;5375066;26;20234;-79
2024/04/10 10:26:31;;;;;;;4.57;0.95;;;17.70;52.10;19.20;102633.00;;;;5376541;26;20771;-79
2024/04/10 10:29:07;;;;;;;3.95;1.05;;;17.70;52.40;19.20;102624.00;;;;5373380;26;20286;-79
2024/04/10 10:31:34;;;;;;;3.50;0.80;;;17.80;52.10;19.30;102638.00;;;;5379328;26;20234;-79
2024/04/10 10:34:03;;;;;;;2.28;0.85;;;17.80;52.50;19.40;102646.00;;;;5395418;26;20344;-79
2024/04/10 10:36:33;;;;;;;1.65;0.65;;;17.90;52.30;19.40;102632.00;;;;5377876;26;20226;-79
2024/04/10 10:39:14;;;;;;;2.15;0.52;;;17.90;51.90;19.40;102657.00;;;;5376247;26;20234;-79
2024/04/10 10:41:41;;;;;;;2.60;0.52;;;18.00;51.80;19.50;102658.00;;;;5377994;26;20273;-79
2024/04/10 10:44:09;;;;;;;1.45;0.63;;;18.10;52.30;19.50;102661.00;;;;5375507;26;21050;-78
2024/04/10 10:46:35;;;;;;;4.43;0.73;;;18.10;51.80;19.40;102664.00;;;;5376285;26;20662;-79
2024/04/10 10:49:05;;;;;;;1.98;0.50;;;18.00;51.40;19.40;102657.00;;;;5375046;26;20260;-79
2024/04/10 10:51:32;;;;;;;2.15;0.52;;;18.00;50.80;19.40;102653.00;;;;5374115;26;20246;-78
2024/04/10 10:54:01;;;;;;;1.95;0.60;;;18.00;50.40;19.30;102661.00;;;;5374428;26;20234;-79